createdAt,value
2019-06-10T00:00:31.281Z,17.80
2019-06-10T00:03:20.735Z,17.80
2019-06-10T00:06:11.355Z,17.80
2019-06-10T00:09:01.591Z,17.70
2019-06-10T00:11:51.275Z,17.70
2019-06-10T00:14:38.726Z,17.70
2019-06-10T00:17:27.344Z,17.60
2019-06-10T00:20:16.094Z,17.70
2019-06-10T00:23:05.617Z,17.60
2019-06-10T00:25:54.395Z,17.60
2019-06-10T00:28:42.544Z,17.60
2019-06-10T00:31:31.250Z,17.60
2019-06-10T00:34:20.829Z,17.60
2019-06-10T00:37:14.697Z,17.60
2019-06-10T00:40:02.157Z,17.60
2019-06-10T00:42:50.739Z,17.60
2019-06-10T00:45:40.787Z,17.60
2019-06-10T00:48:29.320Z,17.60
2019-06-10T00:51:17.502Z,17.60
2019-06-10T00:54:06.978Z,17.60
2019-06-10T00:56:55.525Z,17.70
2019-06-10T00:59:44.099Z,17.70
2019-06-10T01:02:32.745Z,17.60
2019-06-10T01:05:21.339Z,17.60
2019-06-10T01:08:12.124Z,17.60
2019-06-10T01:11:04.131Z,17.50
2019-06-10T01:13:50.798Z,17.50
2019-06-10T01:16:41.129Z,17.50
2019-06-10T01:19:31.056Z,17.40
2019-06-10T01:22:21.316Z,17.40
2019-06-10T01:25:12.313Z,17.40
2019-06-10T01:28:00.602Z,17.30
2019-06-10T01:30:51.555Z,17.30
2019-06-10T01:33:41.050Z,17.30
2019-06-10T01:36:31.397Z,17.30
2019-06-10T01:39:19.609Z,17.30
2019-06-10T01:42:08.227Z,17.30
2019-06-10T01:44:56.521Z,17.30
2019-06-10T01:47:44.875Z,17.30
2019-06-10T01:50:32.831Z,17.30
2019-06-10T01:53:22.070Z,17.30
2019-06-10T01:56:12.794Z,17.30
2019-06-10T01:59:01.486Z,17.30
2019-06-10T02:01:56.259Z,17.30
2019-06-10T02:04:43.860Z,17.30
2019-06-10T02:07:32.355Z,17.30
2019-06-10T02:10:22.997Z,17.30
2019-06-10T02:13:31.975Z,17.30
2019-06-10T02:16:20.010Z,17.40
2019-06-10T02:19:08.292Z,17.30
2019-06-10T02:21:57.137Z,17.30
2019-06-10T02:24:45.463Z,17.30
2019-06-10T02:27:33.810Z,17.30
2019-06-10T02:30:40.239Z,17.30
2019-06-10T02:33:17.354Z,17.30
2019-06-10T02:36:04.864Z,17.30
2019-06-10T02:38:54.143Z,17.20
2019-06-10T02:41:44.670Z,17.20
2019-06-10T02:44:36.693Z,17.20
2019-06-10T02:47:31.308Z,17.10
2019-06-10T02:50:15.028Z,17.10
2019-06-10T02:53:04.002Z,17.10
2019-06-10T02:55:53.805Z,17.10
2019-06-10T02:58:44.824Z,17.10
2019-06-10T03:01:37.150Z,17.10
2019-06-10T03:04:26.731Z,17.00
2019-06-10T03:07:13.747Z,17.10
2019-06-10T03:10:04.515Z,17.00
2019-06-10T03:12:52.813Z,17.00
2019-06-10T03:15:44.548Z,17.00
2019-06-10T03:18:32.881Z,16.90
2019-06-10T03:21:24.206Z,16.90
2019-06-10T03:24:13.090Z,16.90
2019-06-10T03:27:02.693Z,16.90
2019-06-10T03:29:52.670Z,16.90
2019-06-10T03:32:46.466Z,17.00
2019-06-10T03:35:33.034Z,17.00
2019-06-10T03:38:23.669Z,17.00
2019-06-10T03:41:12.462Z,16.90
2019-06-10T03:44:02.408Z,16.90
2019-06-10T03:46:52.213Z,16.90
2019-06-10T03:49:51.721Z,16.90
2019-06-10T03:52:29.233Z,16.90
2019-06-10T03:55:19.218Z,16.90
2019-06-10T03:58:07.616Z,16.80
2019-06-10T04:00:55.644Z,16.80
2019-06-10T04:03:44.268Z,16.90
2019-06-10T04:06:33.570Z,16.90
2019-06-10T04:09:23.640Z,16.90
2019-06-10T04:12:12.671Z,16.90
2019-06-10T04:15:02.880Z,16.80
2019-06-10T04:17:49.836Z,16.80
2019-06-10T04:20:38.510Z,16.80
2019-06-10T04:23:27.249Z,16.80
2019-06-10T04:26:17.783Z,16.80
2019-06-10T04:29:06.811Z,16.80
2019-06-10T04:31:55.127Z,16.80
2019-06-10T04:34:43.424Z,16.80
2019-06-10T04:37:32.594Z,16.80
2019-06-10T04:40:23.131Z,16.70
2019-06-10T04:43:12.359Z,16.80
2019-06-10T04:46:02.080Z,16.80
2019-06-10T04:48:49.609Z,16.80
2019-06-10T04:51:37.772Z,16.90
2019-06-10T04:54:28.079Z,16.90
2019-06-10T04:57:15.766Z,16.90
2019-06-10T05:00:11.353Z,17.00
2019-06-10T05:02:54.059Z,17.00
2019-06-10T05:05:43.058Z,17.00
2019-06-10T05:08:33.689Z,17.10
2019-06-10T05:11:23.475Z,17.20
2019-06-10T05:14:13.041Z,17.10
2019-06-10T05:17:02.196Z,17.20
2019-06-10T05:19:50.275Z,17.30
2019-06-10T05:22:38.459Z,17.40
2019-06-10T05:25:27.244Z,17.50
2019-06-10T05:28:16.942Z,17.60
2019-06-10T05:31:05.290Z,17.70
2019-06-10T05:33:53.450Z,17.80
2019-06-10T05:36:43.557Z,17.90
2019-06-10T05:39:34.845Z,17.90
2019-06-10T05:42:24.583Z,17.90
2019-06-10T05:45:12.340Z,17.90
2019-06-10T05:48:02.829Z,18.00
2019-06-10T05:51:00.176Z,18.20
2019-06-10T05:53:42.645Z,18.30
2019-06-10T05:56:33.517Z,18.40
2019-06-10T05:59:20.107Z,18.40
2019-06-10T06:02:09.191Z,18.60
2019-06-10T06:04:57.341Z,18.80
2019-06-10T06:07:45.390Z,19.10
2019-06-10T06:10:35.949Z,19.70
2019-06-10T06:13:23.547Z,19.80
2019-06-10T06:16:12.651Z,19.80
2019-06-10T06:19:03.070Z,19.90
2019-06-10T06:21:52.865Z,20.20
2019-06-10T06:24:42.617Z,20.10
2019-06-10T06:27:31.365Z,19.90
2019-06-10T06:30:19.495Z,19.50
2019-06-10T06:33:08.194Z,19.50
2019-06-10T06:35:56.827Z,19.50
2019-06-10T06:38:44.460Z,19.70
2019-06-10T06:41:34.534Z,19.80
2019-06-10T06:44:23.328Z,19.90
2019-06-10T06:47:13.176Z,19.90
2019-06-10T06:50:02.751Z,20.10
2019-06-10T06:53:19.045Z,20.30
2019-06-10T06:55:40.052Z,20.20
2019-06-10T06:58:29.116Z,20.10
2019-06-10T07:01:17.487Z,20.20
2019-06-10T07:04:05.619Z,20.20
2019-06-10T07:06:55.648Z,20.40
2019-06-10T07:09:46.831Z,20.40
2019-06-10T07:12:37.868Z,20.60
2019-06-10T07:15:39.529Z,20.70
2019-06-10T07:18:28.119Z,20.70
2019-06-10T07:21:16.681Z,20.70
2019-06-10T07:24:05.026Z,21.00
2019-06-10T07:26:54.939Z,21.10
2019-06-10T07:29:47.045Z,21.40
2019-06-10T07:32:34.449Z,21.50
2019-06-10T07:35:22.794Z,21.30
2019-06-10T07:38:12.245Z,21.60
2019-06-10T07:41:02.597Z,21.80
2019-06-10T07:43:52.805Z,22.00
2019-06-10T07:46:43.774Z,22.20
2019-06-10T07:49:33.459Z,22.40
2019-06-10T07:52:23.303Z,22.70
2019-06-10T07:55:12.924Z,23.20
2019-06-10T07:58:02.528Z,22.90
2019-06-10T08:00:53.392Z,23.10
2019-06-10T08:03:42.555Z,23.10
2019-06-10T08:06:33.078Z,23.30
2019-06-10T08:09:22.626Z,23.80
2019-06-10T08:12:09.846Z,24.70
2019-06-10T08:14:57.532Z,25.10
2019-06-10T08:17:45.800Z,26.30
2019-06-10T08:20:47.451Z,27.20
2019-06-10T08:23:36.908Z,27.50
2019-06-10T08:26:25.995Z,26.90
2019-06-10T08:29:14.462Z,26.10
2019-06-10T08:32:03.286Z,26.20
2019-06-10T08:34:53.001Z,25.60
2019-06-10T08:37:43.254Z,25.30
2019-06-10T08:40:32.573Z,26.10
2019-06-10T08:43:22.726Z,26.40
2019-06-10T08:46:12.944Z,26.20
2019-06-10T08:49:02.998Z,26.40
2019-06-10T08:51:53.124Z,27.30
2019-06-10T08:54:45.212Z,27.40
2019-06-10T08:57:33.368Z,26.90
2019-06-10T09:00:25.380Z,26.90
2019-06-10T09:03:12.706Z,26.60
2019-06-10T09:06:02.764Z,26.40
2019-06-10T09:08:54.469Z,25.90
2019-06-10T09:11:44.809Z,26.70
2019-06-10T09:14:32.617Z,26.20
2019-06-10T09:17:22.871Z,26.70
2019-06-10T09:20:13.010Z,28.60
2019-06-10T09:23:18.209Z,27.10
2019-06-10T09:25:54.484Z,27.50
2019-06-10T09:28:45.110Z,28.60
2019-06-10T09:31:30.177Z,29.30
2019-06-10T09:34:18.003Z,29.50
2019-06-10T09:37:06.162Z,30.20
2019-06-10T09:39:59.447Z,30.50
2019-06-10T09:42:48.112Z,30.70
2019-06-10T09:45:35.127Z,30.80
2019-06-10T09:48:24.045Z,29.80
2019-06-10T09:51:12.611Z,29.20
2019-06-10T09:54:06.329Z,29.10
2019-06-10T09:56:54.508Z,28.50
2019-06-10T09:59:44.479Z,29.10
2019-06-10T10:02:33.220Z,29.60
2019-06-10T10:05:23.172Z,29.60
2019-06-10T10:08:12.673Z,28.70
2019-06-10T10:11:00.203Z,29.00
2019-06-10T10:13:49.894Z,28.90
2019-06-10T10:16:38.475Z,29.20
2019-06-10T10:19:26.598Z,29.60
2019-06-10T10:22:14.806Z,29.90
2019-06-10T10:25:03.105Z,31.00
2019-06-10T10:27:57.248Z,31.90
2019-06-10T10:30:44.675Z,32.00
2019-06-10T10:33:33.176Z,30.50
2019-06-10T10:36:22.574Z,31.20
2019-06-10T10:39:10.892Z,31.60
2019-06-10T10:41:59.259Z,31.00
2019-06-10T10:44:50.109Z,30.70
2019-06-10T10:47:36.839Z,31.10
2019-06-10T10:50:25.070Z,31.20
2019-06-10T10:53:13.579Z,31.10
2019-06-10T10:56:02.208Z,32.20
2019-06-10T10:58:55.623Z,33.00
2019-06-10T11:01:42.710Z,32.10
2019-06-10T11:04:32.875Z,33.00
2019-06-10T11:07:22.328Z,33.70
2019-06-10T11:10:12.705Z,34.30
2019-06-10T11:13:03.661Z,34.10
2019-06-10T11:15:55.399Z,34.30
2019-06-10T11:18:42.279Z,34.80
2019-06-10T11:21:30.111Z,33.40
2019-06-10T11:24:32.703Z,34.20
2019-06-10T11:27:08.399Z,34.20
2019-06-10T11:29:59.035Z,34.60
2019-06-10T11:32:47.849Z,33.90
2019-06-10T11:35:36.491Z,34.80
2019-06-10T11:38:25.347Z,33.70
2019-06-10T11:41:13.854Z,33.80
2019-06-10T11:44:02.600Z,34.10
2019-06-10T11:46:51.393Z,33.00
2019-06-10T11:49:39.634Z,31.80
2019-06-10T11:52:27.919Z,31.80
2019-06-10T11:55:19.268Z,32.30
2019-06-10T11:58:07.282Z,33.10
2019-06-10T12:00:57.658Z,33.00
2019-06-10T12:03:45.154Z,32.30
2019-06-10T12:06:34.172Z,31.80
2019-06-10T12:09:22.964Z,31.50
2019-06-10T12:12:12.982Z,30.60
2019-06-10T12:15:01.728Z,29.60
2019-06-10T12:17:52.674Z,28.30
2019-06-10T12:20:39.683Z,28.20
2019-06-10T12:23:27.917Z,28.20
2019-06-10T12:26:16.856Z,27.80
2019-06-10T12:29:05.813Z,27.50
2019-06-10T12:31:57.987Z,27.30
2019-06-10T12:34:46.189Z,27.50
2019-06-10T12:37:33.872Z,27.90
2019-06-10T12:40:23.503Z,27.80
2019-06-10T12:43:12.666Z,27.70
2019-06-10T12:46:02.036Z,27.50
2019-06-10T12:48:54.899Z,27.80
2019-06-10T12:51:41.776Z,27.50
2019-06-10T12:54:30.031Z,27.20
2019-06-10T12:57:18.275Z,27.50
2019-06-10T13:00:20.652Z,27.80
2019-06-10T13:03:05.425Z,28.10
2019-06-10T13:05:55.951Z,28.40
2019-06-10T13:08:46.204Z,28.30
2019-06-10T13:11:34.840Z,28.20
2019-06-10T13:14:23.495Z,28.20
2019-06-10T13:17:13.028Z,27.70
2019-06-10T13:20:01.995Z,27.40
2019-06-10T13:22:50.420Z,27.50
2019-06-10T13:25:53.117Z,27.30
2019-06-10T13:28:28.755Z,27.20
2019-06-10T13:31:16.814Z,27.00
2019-06-10T13:34:09.111Z,26.80
2019-06-10T13:36:54.594Z,27.00
2019-06-10T13:39:43.045Z,27.10
2019-06-10T13:42:33.866Z,27.10
2019-06-10T13:45:22.412Z,27.10
2019-06-10T13:48:14.632Z,27.10
2019-06-10T13:51:04.718Z,27.10
2019-06-10T13:53:53.571Z,27.30
2019-06-10T13:56:47.007Z,27.20
2019-06-10T13:59:30.442Z,27.30
2019-06-10T14:02:18.446Z,27.20
2019-06-10T14:05:08.316Z,27.20
2019-06-10T14:07:57.152Z,27.30
2019-06-10T14:10:45.547Z,27.50
2019-06-10T14:13:33.707Z,27.80
2019-06-10T14:16:23.418Z,28.00
2019-06-10T14:19:15.713Z,28.00
2019-06-10T14:22:03.517Z,28.40
2019-06-10T14:24:52.780Z,28.80
2019-06-10T14:27:42.498Z,28.90
2019-06-10T14:30:32.337Z,28.40
2019-06-10T14:33:20.224Z,28.60
2019-06-10T14:36:10.364Z,28.60
2019-06-10T14:38:58.269Z,28.10
2019-06-10T14:41:47.116Z,27.80
2019-06-10T14:44:35.463Z,27.60
2019-06-10T14:47:24.167Z,27.40
2019-06-10T14:50:14.320Z,27.10
2019-06-10T14:53:03.384Z,27.20
2019-06-10T14:55:53.331Z,27.10
2019-06-10T14:58:42.407Z,27.20
2019-06-10T15:01:32.202Z,27.40
2019-06-10T15:04:22.447Z,27.50
2019-06-10T15:07:11.458Z,27.60
2019-06-10T15:10:00.135Z,27.70
2019-06-10T15:12:48.371Z,27.30
2019-06-10T15:15:36.022Z,27.10
2019-06-10T15:18:24.216Z,26.70
2019-06-10T15:21:13.288Z,26.20
2019-06-10T15:24:03.010Z,25.90
2019-06-10T15:27:07.913Z,25.60
2019-06-10T15:29:43.139Z,25.50
2019-06-10T15:32:34.865Z,25.40
2019-06-10T15:35:24.256Z,25.30
2019-06-10T15:38:13.912Z,25.20
2019-06-10T15:41:00.627Z,25.10
2019-06-10T15:43:49.464Z,25.00
2019-06-10T15:46:36.999Z,24.90
2019-06-10T15:49:26.234Z,24.70
2019-06-10T15:52:17.529Z,24.60
2019-06-10T15:55:04.884Z,24.40
2019-06-10T15:57:54.321Z,24.20
2019-06-10T16:00:42.722Z,24.10
2019-06-10T16:03:32.924Z,23.90
2019-06-10T16:06:22.724Z,23.90
2019-06-10T16:09:13.445Z,23.60
2019-06-10T16:12:02.944Z,23.40
2019-06-10T16:14:52.633Z,23.20
2019-06-10T16:17:43.093Z,22.90
2019-06-10T16:20:32.338Z,22.50
2019-06-10T16:23:23.017Z,21.80
2019-06-10T16:26:12.625Z,21.50
2019-06-10T16:29:02.649Z,21.10
2019-06-10T16:31:52.805Z,21.00
2019-06-10T16:34:40.615Z,20.80
2019-06-10T16:37:28.463Z,20.30
2019-06-10T16:40:17.201Z,19.90
2019-06-10T16:43:05.159Z,19.50
2019-06-10T16:45:53.930Z,19.30
2019-06-10T16:48:43.563Z,19.30
2019-06-10T16:51:31.711Z,19.30
2019-06-10T16:54:23.575Z,19.20
2019-06-10T16:57:12.354Z,19.30
2019-06-10T17:00:00.019Z,19.40
2019-06-10T17:02:48.505Z,19.50
2019-06-10T17:05:37.235Z,19.60
2019-06-10T17:08:28.286Z,19.70
2019-06-10T17:11:15.478Z,19.70
2019-06-10T17:14:03.843Z,19.60
2019-06-10T17:16:52.820Z,19.60
2019-06-10T17:19:41.452Z,19.60
2019-06-10T17:22:30.981Z,19.60
2019-06-10T17:25:23.517Z,19.70
2019-06-10T17:28:18.189Z,19.70
2019-06-10T17:31:00.359Z,19.60
2019-06-10T17:33:48.981Z,19.60
2019-06-10T17:36:37.638Z,19.60
2019-06-10T17:39:27.011Z,19.70
2019-06-10T17:42:15.725Z,19.80
2019-06-10T17:45:04.261Z,20.00
2019-06-10T17:47:53.346Z,20.10
2019-06-10T17:50:42.904Z,20.10
2019-06-10T17:53:34.757Z,20.20
2019-06-10T17:56:24.274Z,20.30
2019-06-10T17:59:12.866Z,20.30
2019-06-10T18:02:03.000Z,20.30
2019-06-10T18:04:52.622Z,20.50
2019-06-10T18:07:40.771Z,20.60
2019-06-10T18:10:29.776Z,20.50
2019-06-10T18:13:18.679Z,20.70
2019-06-10T18:16:06.687Z,20.50
2019-06-10T18:18:55.195Z,20.40
2019-06-10T18:21:43.674Z,20.40
2019-06-10T18:24:32.872Z,20.40
2019-06-10T18:27:22.008Z,20.30
2019-06-10T18:30:13.410Z,20.20
2019-06-10T18:32:59.949Z,20.10
2019-06-10T18:35:47.592Z,20.00
2019-06-10T18:38:37.309Z,19.90
2019-06-10T18:41:25.847Z,19.90
2019-06-10T18:44:22.621Z,19.80
2019-06-10T18:47:03.846Z,19.80
2019-06-10T18:49:52.731Z,19.80
2019-06-10T18:52:43.365Z,19.80
2019-06-10T18:55:31.426Z,19.70
2019-06-10T18:58:22.344Z,19.60
2019-06-10T19:01:12.205Z,19.60
2019-06-10T19:03:59.467Z,19.50
2019-06-10T19:06:47.814Z,19.50
2019-06-10T19:09:39.138Z,19.50
2019-06-10T19:12:26.219Z,19.40
2019-06-10T19:15:14.923Z,19.50
2019-06-10T19:18:03.266Z,19.30
2019-06-10T19:20:53.009Z,19.30
2019-06-10T19:23:43.740Z,19.40
2019-06-10T19:26:33.969Z,19.40
2019-06-10T19:29:33.170Z,19.40
2019-06-10T19:32:12.641Z,19.40
2019-06-10T19:35:02.823Z,19.30
2019-06-10T19:37:50.771Z,19.30
2019-06-10T19:40:39.937Z,19.30
2019-06-10T19:43:28.632Z,19.30
2019-06-10T19:46:17.364Z,19.30
2019-06-10T19:49:07.241Z,19.30
2019-06-10T19:51:55.023Z,19.10
2019-06-10T19:54:45.156Z,19.00
2019-06-10T19:57:34.290Z,19.00
2019-06-10T20:00:23.927Z,19.00
2019-06-10T20:03:12.042Z,18.90
2019-06-10T20:06:02.887Z,18.90
2019-06-10T20:08:52.139Z,18.90
2019-06-10T20:11:41.056Z,18.80
2019-06-10T20:14:29.336Z,18.80
2019-06-10T20:17:17.679Z,18.80
2019-06-10T20:20:05.998Z,18.80
2019-06-10T20:22:57.237Z,18.70
2019-06-10T20:25:46.765Z,18.60
2019-06-10T20:28:33.907Z,18.50
2019-06-10T20:31:22.564Z,18.50
2019-06-10T20:34:13.114Z,18.50
2019-06-10T20:37:04.288Z,18.40
2019-06-10T20:39:50.480Z,18.40
2019-06-10T20:42:38.228Z,18.50
2019-06-10T20:45:27.207Z,18.50
2019-06-10T20:48:15.512Z,18.50
2019-06-10T20:51:03.441Z,18.40
2019-06-10T20:53:53.299Z,18.20
2019-06-10T20:56:45.590Z,18.00
2019-06-10T20:59:33.251Z,17.90
2019-06-10T21:02:22.622Z,18.00
2019-06-10T21:05:13.213Z,17.90
2019-06-10T21:08:03.082Z,18.00
2019-06-10T21:10:53.938Z,17.90
2019-06-10T21:13:46.966Z,17.80
2019-06-10T21:16:32.164Z,17.80
2019-06-10T21:19:23.098Z,17.90
2019-06-10T21:22:10.346Z,17.90
2019-06-10T21:24:58.342Z,17.90
2019-06-10T21:27:47.947Z,17.80
2019-06-10T21:30:41.929Z,17.80
2019-06-10T21:33:26.946Z,17.80
2019-06-10T21:36:15.490Z,17.80
2019-06-10T21:39:04.334Z,17.70
2019-06-10T21:41:54.346Z,17.60
2019-06-10T21:44:43.772Z,17.60
2019-06-10T21:47:32.374Z,17.50
2019-06-10T21:50:22.680Z,17.50
2019-06-10T21:53:12.912Z,17.50
2019-06-10T21:56:01.261Z,17.60
2019-06-10T21:58:49.059Z,17.50
2019-06-10T22:01:37.683Z,17.40
2019-06-10T22:04:26.856Z,17.40
2019-06-10T22:07:15.207Z,17.50
2019-06-10T22:10:04.319Z,17.40
2019-06-10T22:12:53.113Z,17.40
2019-06-10T22:15:42.623Z,17.20
2019-06-10T22:18:32.185Z,17.20
2019-06-10T22:21:22.758Z,17.20
2019-06-10T22:24:12.447Z,17.00
2019-06-10T22:27:02.597Z,17.00
2019-06-10T22:29:49.843Z,16.90
2019-06-10T22:32:38.203Z,16.90
2019-06-10T22:35:26.667Z,16.80
2019-06-10T22:38:22.219Z,16.80
2019-06-10T22:41:12.282Z,16.80
2019-06-10T22:44:03.328Z,16.80
2019-06-10T22:46:52.519Z,16.90
2019-06-10T22:49:43.026Z,16.90
2019-06-10T22:52:32.126Z,16.90
2019-06-10T22:55:20.827Z,16.90
2019-06-10T22:58:08.791Z,17.00
2019-06-10T23:00:57.880Z,17.00
2019-06-10T23:03:48.004Z,17.00
2019-06-10T23:06:36.809Z,17.10
2019-06-10T23:09:25.415Z,17.10
2019-06-10T23:12:13.114Z,17.10
2019-06-10T23:15:02.818Z,17.10
2019-06-10T23:17:55.300Z,17.10
2019-06-10T23:20:42.814Z,17.20
2019-06-10T23:23:32.573Z,17.30
2019-06-10T23:26:22.608Z,17.30
2019-06-10T23:29:12.269Z,17.10
2019-06-10T23:32:05.897Z,17.10
2019-06-10T23:34:51.515Z,17.10
2019-06-10T23:37:39.855Z,17.20
2019-06-10T23:40:28.431Z,17.10
2019-06-10T23:43:17.439Z,17.20
2019-06-10T23:46:05.141Z,17.20
2019-06-10T23:48:53.408Z,17.10
2019-06-10T23:51:42.499Z,17.10
2019-06-10T23:54:32.311Z,17.10
2019-06-10T23:57:22.355Z,17.10
